Time;durP1;ratioP1;P1;durP2;ratioP2;P2;SDS_P1;SDS_P2;PMS_P1;PMS_P2;Temp;Humidity;BMP_temperature;BMP_pressure;BME280_temperature;BME280_humidity;BME280_pressure;Samples;Min_cycle;Max_cycle;Signal;HPM_P1;HPM_P2
2023/07/17 00:01:42;;;;;;;;;;;23.00;61.50;;;;;;4188821;28;19936;-48
2023/07/17 00:04:23;;;;;;;;;;;22.90;61.60;;;;;;4188192;28;19931;-51
2023/07/17 00:07:04;;;;;;;;;;;23.00;61.80;;;;;;4155456;28;20285;-50
2023/07/17 00:09:46;;;;;;;;;;;22.90;61.90;;;;;;4155639;28;19998;-45
2023/07/17 00:12:27;;;;;;;;;;;22.90;62.10;;;;;;4155232;28;19936;-47
2023/07/17 00:15:09;;;;;;;;;;;22.90;62.10;;;;;;4158116;28;20075;-50
2023/07/17 00:17:50;;;;;;;;;;;22.90;62.20;;;;;;4169454;28;20059;-46
2023/07/17 00:20:31;;;;;;;;;;;22.90;62.40;;;;;;4153670;28;19974;-50
2023/07/17 00:23:11;;;;;;;;;;;22.90;62.40;;;;;;4155548;28;20295;-45
2023/07/17 00:25:54;;;;;;;;;;;22.90;62.50;;;;;;4169263;28;19947;-51
2023/07/17 00:28:35;;;;;;;;;;;22.90;62.50;;;;;;4186386;28;19931;-49
2023/07/17 00:31:16;;;;;;;;;;;22.90;62.70;;;;;;4154499;28;19940;-52
2023/07/17 00:33:57;;;;;;;;;;;22.90;62.80;;;;;;4148666;28;20296;-49
2023/07/17 00:36:38;;;;;;;;;;;22.90;63.00;;;;;;4180421;28;19935;-49
2023/07/17 00:39:20;;;;;;;;;;;22.90;63.10;;;;;;4186025;28;20035;-49
2023/07/17 00:42:03;;;;;;;;;;;22.90;63.20;;;;;;4163427;28;19978;-49
2023/07/17 00:44:45;;;;;;;;;;;22.90;63.20;;;;;;4170068;28;19979;-47
2023/07/17 00:47:27;;;;;;;;;;;22.90;63.20;;;;;;4154083;28;19940;-49
2023/07/17 00:50:08;;;;;;;;;;;22.80;63.20;;;;;;4153696;28;19954;-48
2023/07/17 00:52:49;;;;;;;;;;;22.80;63.30;;;;;;4170146;28;19939;-47
2023/07/17 00:55:32;;;;;;;;;;;22.90;63.50;;;;;;4171532;28;19994;-47
2023/07/17 00:58:14;;;;;;;;;;;22.80;63.60;;;;;;4187756;28;20062;-52
2023/07/17 01:00:55;;;;;;;;;;;22.80;63.60;;;;;;4153373;28;19936;-51
2023/07/17 01:03:36;;;;;;;;;;;22.80;64.50;;;;;;4154724;28;20287;-48
2023/07/17 01:06:17;;;;;;;;;;;22.90;63.70;;;;;;4172498;28;19947;-49
2023/07/17 01:08:58;;;;;;;;;;;22.80;63.80;;;;;;4184000;28;19935;-52
2023/07/17 01:11:40;;;;;;;;;;;22.80;63.90;;;;;;4176175;28;19964;-52
2023/07/17 01:14:23;;;;;;;;;;;22.80;63.90;;;;;;4160363;28;19932;-52
2023/07/17 01:17:03;;;;;;;;;;;22.80;63.90;;;;;;4183815;28;20398;-51
2023/07/17 01:19:45;;;;;;;;;;;22.80;64.80;;;;;;4170635;28;19951;-52
2023/07/17 01:22:27;;;;;;;;;;;22.70;63.80;;;;;;4185943;28;20020;-46
2023/07/17 01:25:10;;;;;;;;;;;22.70;63.90;;;;;;4140818;28;19933;-52
2023/07/17 01:27:52;;;;;;;;;;;22.70;64.80;;;;;;4153288;28;20407;-51
2023/07/17 01:30:35;;;;;;;;;;;22.70;64.00;;;;;;4155643;28;19933;-48
2023/07/17 01:33:16;;;;;;;;;;;22.70;64.00;;;;;;4152727;28;19979;-52
2023/07/17 01:35:57;;;;;;;;;;;22.70;64.00;;;;;;4159253;28;19936;-49
2023/07/17 01:38:38;;;;;;;;;;;22.70;64.10;;;;;;4171107;28;19975;-50
2023/07/17 01:41:20;;;;;;;;;;;22.70;64.10;;;;;;4170083;28;19932;-48
2023/07/17 01:44:01;;;;;;;;;;;22.70;64.20;;;;;;4171059;28;20058;-49
2023/07/17 01:46:42;;;;;;;;;;;22.70;64.30;;;;;;4181048;28;20410;-48
2023/07/17 01:49:22;;;;;;;;;;;22.70;64.40;;;;;;4169711;28;20014;-48
2023/07/17 01:52:03;;;;;;;;;;;22.70;64.40;;;;;;4138473;28;19932;-48
2023/07/17 01:54:45;;;;;;;;;;;22.70;64.50;;;;;;4153325;28;20391;-49
2023/07/17 01:57:27;;;;;;;;;;;22.60;64.50;;;;;;4168607;28;20006;-49
2023/07/17 02:00:12;;;;;;;;;;;22.60;64.50;;;;;;4168793;28;19932;-51
2023/07/17 02:02:53;;;;;;;;;;;22.60;64.60;;;;;;4168688;28;19935;-53
2023/07/17 02:05:34;;;;;;;;;;;22.60;65.60;;;;;;4163574;28;19932;-49
2023/07/17 02:08:15;;;;;;;;;;;22.60;64.80;;;;;;4168610;28;19939;-50
2023/07/17 02:10:56;;;;;;;;;;;22.60;64.80;;;;;;4170291;28;19936;-49
2023/07/17 02:13:38;;;;;;;;;;;22.60;64.90;;;;;;4154863;28;20254;-50
2023/07/17 02:16:19;;;;;;;;;;;22.60;65.90;;;;;;4168468;28;19936;-53
2023/07/17 02:19:00;;;;;;;;;;;22.60;65.10;;;;;;4184470;28;19935;-52
2023/07/17 02:21:41;;;;;;;;;;;22.60;65.10;;;;;;4158764;28;20269;-51
2023/07/17 02:24:22;;;;;;;;;;;22.60;66.10;;;;;;4157038;28;20003;-47
2023/07/17 02:27:04;;;;;;;;;;;22.60;65.30;;;;;;4184526;28;20271;-47
2023/07/17 02:29:47;;;;;;;;;;;22.60;65.40;;;;;;4189149;28;19935;-45
2023/07/17 02:32:29;;;;;;;;;;;22.60;65.40;;;;;;4160510;28;19936;-47
2023/07/17 02:35:12;;;;;;;;;;;22.60;65.50;;;;;;4156123;28;20437;-53
2023/07/17 02:37:53;;;;;;;;;;;22.50;65.50;;;;;;4173109;28;19935;-50
2023/07/17 02:40:34;;;;;;;;;;;22.60;65.50;;;;;;4172738;28;19958;-50
2023/07/17 02:43:15;;;;;;;;;;;22.50;65.50;;;;;;4156429;28;19936;-50
2023/07/17 02:45:59;;;;;;;;;;;22.50;65.50;;;;;;4167114;28;20009;-49
2023/07/17 02:48:40;;;;;;;;;;;22.50;65.50;;;;;;4172750;28;19935;-51
2023/07/17 02:51:21;;;;;;;;;;;22.50;65.50;;;;;;4153721;28;20295;-52
2023/07/17 02:54:01;;;;;;;;;;;22.50;65.50;;;;;;4156377;28;19932;-49
2023/07/17 02:56:44;;;;;;;;;;;22.50;65.50;;;;;;4164802;28;19969;-50
2023/07/17 02:59:25;;;;;;;;;;;22.50;65.40;;;;;;4171592;28;20006;-48
2023/07/17 03:02:07;;;;;;;;;;;22.50;65.40;;;;;;4155759;28;20576;-42
2023/07/17 03:04:47;;;;;;;;;;;22.50;65.30;;;;;;4166234;28;20039;-42
2023/07/17 03:07:28;;;;;;;;;;;22.50;65.30;;;;;;4170462;28;19935;-41
2023/07/17 03:10:09;;;;;;;;;;;22.50;65.30;;;;;;4157468;28;19936;-42
2023/07/17 03:12:51;;;;;;;;;;;22.40;65.20;;;;;;4138370;28;19952;-45
2023/07/17 03:15:31;;;;;;;;;;;22.40;65.20;;;;;;4161402;28;19947;-48
2023/07/17 03:18:13;;;;;;;;;;;22.40;65.10;;;;;;4187302;28;20058;-44
2023/07/17 03:20:55;;;;;;;;;;;22.40;65.00;;;;;;4188292;28;19932;-44
2023/07/17 03:23:36;;;;;;;;;;;22.40;65.00;;;;;;4170403;28;19932;-47
2023/07/17 03:26:17;;;;;;;;;;;22.40;65.00;;;;;;4176869;28;20006;-49
2023/07/17 03:28:58;;;;;;;;;;;22.40;65.10;;;;;;4188939;28;19932;-50
2023/07/17 03:31:39;;;;;;;;;;;22.30;65.00;;;;;;4187620;28;19931;-48
2023/07/17 03:34:21;;;;;;;;;;;22.30;65.00;;;;;;4156121;28;20288;-45
2023/07/17 03:37:03;;;;;;;;;;;22.30;65.90;;;;;;4156554;28;20015;-46
2023/07/17 03:39:44;;;;;;;;;;;22.30;65.00;;;;;;4154884;28;19936;-47
2023/07/17 03:42:25;;;;;;;;;;;22.30;65.00;;;;;;4158430;28;19932;-47
2023/07/17 03:45:07;;;;;;;;;;;22.30;65.00;;;;;;4172942;28;19931;-46
2023/07/17 03:47:51;;;;;;;;;;;22.30;65.00;;;;;;4187356;28;20076;-44
2023/07/17 03:50:33;;;;;;;;;;;22.30;65.00;;;;;;4176303;28;19932;-46
2023/07/17 03:53:15;;;;;;;;;;;22.30;65.00;;;;;;4164025;28;20033;-46
2023/07/17 03:55:56;;;;;;;;;;;22.30;65.00;;;;;;4182944;28;20379;-46
2023/07/17 03:58:36;;;;;;;;;;;22.30;65.00;;;;;;4187278;28;19931;-45
2023/07/17 04:01:18;;;;;;;;;;;22.30;65.00;;;;;;4187409;28;19931;-47
2023/07/17 04:04:02;;;;;;;;;;;22.30;65.00;;;;;;4184317;28;20359;-45
2023/07/17 04:06:46;;;;;;;;;;;22.30;65.10;;;;;;4186944;28;20296;-45
2023/07/17 04:09:28;;;;;;;;;;;22.20;65.00;;;;;;4174782;28;20018;-44
2023/07/17 04:12:09;;;;;;;;;;;22.30;66.00;;;;;;4155482;28;19979;-44
2023/07/17 04:14:51;;;;;;;;;;;22.20;65.00;;;;;;4154121;28;19932;-42
2023/07/17 04:17:32;;;;;;;;;;;22.20;65.10;;;;;;4151631;28;19935;-42
2023/07/17 04:20:13;;;;;;;;;;;22.20;65.90;;;;;;4153953;28;19932;-42
2023/07/17 04:22:55;;;;;;;;;;;22.20;65.10;;;;;;4148552;28;19937;-41
2023/07/17 04:25:38;;;;;;;;;;;22.20;65.00;;;;;;4172131;28;19931;-41
2023/07/17 04:28:19;;;;;;;;;;;22.30;65.10;;;;;;4181338;28;19979;-41
2023/07/17 04:31:04;;;;;;;;;;;22.20;65.00;;;;;;4169361;28;24171;-41
2023/07/17 04:33:46;;;;;;;;;;;22.20;65.10;;;;;;4137445;28;19933;-43
2023/07/17 04:36:26;;;;;;;;;;;22.20;65.00;;;;;;4153622;28;19936;-42
2023/07/17 04:39:09;;;;;;;;;;;22.20;65.00;;;;;;4153913;28;19936;-42
2023/07/17 04:41:52;;;;;;;;;;;22.30;65.10;;;;;;4139830;28;19933;-48
2023/07/17 04:44:33;;;;;;;;;;;22.30;65.00;;;;;;4139476;28;20015;-48
2023/07/17 04:47:16;;;;;;;;;;;22.20;65.10;;;;;;4153787;28;19936;-49
2023/07/17 04:49:57;;;;;;;;;;;22.30;65.40;;;;;;4153692;28;19936;-41
2023/07/17 04:52:41;;;;;;;;;;;22.30;65.30;;;;;;4145947;28;20280;-42
2023/07/17 04:55:23;;;;;;;;;;;22.30;66.20;;;;;;4137100;28;20445;-42
2023/07/17 04:58:04;;;;;;;;;;;22.30;65.20;;;;;;4137751;28;19932;-42
2023/07/17 05:00:47;;;;;;;;;;;22.30;65.10;;;;;;4138381;28;19936;-43
2023/07/17 05:03:28;;;;;;;;;;;22.30;65.90;;;;;;4137240;28;20718;-44
2023/07/17 05:06:09;;;;;;;;;;;22.30;65.00;;;;;;4109055;28;19933;-43
2023/07/17 05:08:50;;;;;;;;;;;22.30;65.00;;;;;;4136304;28;20060;-42
2023/07/17 05:11:34;;;;;;;;;;;22.30;65.00;;;;;;4136052;28;20474;-43
2023/07/17 05:14:15;;;;;;;;;;;22.30;65.00;;;;;;4130718;28;19948;-45
2023/07/17 05:16:56;;;;;;;;;;;22.30;65.00;;;;;;4137662;28;19936;-44
2023/07/17 05:19:38;;;;;;;;;;;22.30;65.00;;;;;;4118173;28;19936;-45
2023/07/17 05:22:19;;;;;;;;;;;22.30;65.00;;;;;;4132192;28;20711;-47
2023/07/17 05:25:01;;;;;;;;;;;22.40;65.10;;;;;;4120550;28;20020;-45
2023/07/17 05:27:45;;;;;;;;;;;22.40;64.80;;;;;;4125835;28;20656;-46
2023/07/17 05:30:28;;;;;;;;;;;22.40;64.70;;;;;;4152595;28;19935;-46
2023/07/17 05:33:09;;;;;;;;;;;22.50;65.40;;;;;;4156557;28;20499;-46
2023/07/17 05:35:52;;;;;;;;;;;22.50;64.30;;;;;;4153604;28;19933;-46
2023/07/17 05:38:35;;;;;;;;;;;22.60;64.00;;;;;;4153461;28;20398;-45
2023/07/17 05:41:16;;;;;;;;;;;22.60;63.80;;;;;;4143263;28;19943;-47
2023/07/17 05:43:59;;;;;;;;;;;22.70;63.50;;;;;;4148699;28;19932;-49
2023/07/17 05:46:40;;;;;;;;;;;22.80;63.40;;;;;;4151961;28;20383;-44
2023/07/17 05:49:22;;;;;;;;;;;22.80;63.10;;;;;;4173936;28;20032;-46
2023/07/17 05:52:04;;;;;;;;;;;22.90;62.90;;;;;;4160647;28;19936;-45
2023/07/17 05:54:45;;;;;;;;;;;22.90;62.70;;;;;;4155427;28;19951;-46
2023/07/17 05:57:26;;;;;;;;;;;23.00;62.50;;;;;;4157115;28;20063;-43
2023/07/17 06:00:11;;;;;;;;;;;23.00;62.40;;;;;;4169604;28;19936;-43
2023/07/17 06:02:55;;;;;;;;;;;23.00;63.20;;;;;;4173702;28;19932;-46
2023/07/17 06:05:39;;;;;;;;;;;23.00;62.20;;;;;;4157643;28;19933;-45
2023/07/17 06:08:20;;;;;;;;;;;23.00;62.20;;;;;;4187490;28;19950;-46
2023/07/17 06:11:01;;;;;;;;;;;23.10;62.20;;;;;;4168386;28;19932;-44
2023/07/17 06:13:42;;;;;;;;;;;23.10;62.20;;;;;;4159075;28;20308;-45
2023/07/17 06:16:23;;;;;;;;;;;23.10;62.20;;;;;;4174535;28;20286;-42
2023/07/17 06:19:04;;;;;;;;;;;23.10;62.20;;;;;;4168636;28;20401;-43
2023/07/17 06:21:45;;;;;;;;;;;23.10;62.20;;;;;;4173224;28;20389;-42
2023/07/17 06:24:27;;;;;;;;;;;23.10;62.20;;;;;;4156568;28;19936;-42
2023/07/17 06:27:08;;;;;;;;;;;23.10;62.20;;;;;;4163275;28;19936;-44
2023/07/17 06:29:49;;;;;;;;;;;23.10;62.10;;;;;;4156854;28;19948;-42
2023/07/17 06:32:31;;;;;;;;;;;23.10;62.90;;;;;;4157179;28;19933;-48
2023/07/17 06:35:12;;;;;;;;;;;23.10;62.10;;;;;;4154146;28;19933;-45
2023/07/17 06:37:52;;;;;;;;;;;23.20;62.10;;;;;;4155777;28;19933;-47
2023/07/17 06:40:34;;;;;;;;;;;23.10;62.10;;;;;;4157760;28;19932;-48
2023/07/17 06:43:15;;;;;;;;;;;23.20;62.10;;;;;;4157019;28;20291;-44
2023/07/17 06:45:57;;;;;;;;;;;23.30;62.00;;;;;;4155474;28;20298;-43
2023/07/17 06:48:41;;;;;;;;;;;23.30;61.80;;;;;;4168319;28;19939;-46
2023/07/17 06:51:22;;;;;;;;;;;23.30;61.70;;;;;;4188629;28;19962;-50
2023/07/17 06:54:03;;;;;;;;;;;23.30;61.60;;;;;;4190008;28;19939;-43
2023/07/17 06:56:44;;;;;;;;;;;23.40;61.60;;;;;;4181018;28;19940;-43
2023/07/17 06:59:26;;;;;;;;;;;23.40;61.40;;;;;;4169156;28;19957;-43
2023/07/17 07:02:07;;;;;;;;;;;23.40;61.30;;;;;;4172338;28;19936;-51
2023/07/17 07:04:49;;;;;;;;;;;23.50;61.30;;;;;;4171297;28;19954;-46
2023/07/17 07:07:30;;;;;;;;;;;23.50;61.20;;;;;;4166788;28;19935;-43
2023/07/17 07:10:11;;;;;;;;;;;23.50;61.00;;;;;;4168976;28;20280;-44
2023/07/17 07:12:52;;;;;;;;;;;23.50;62.10;;;;;;4169929;28;20063;-43
2023/07/17 07:15:33;;;;;;;;;;;23.40;62.00;;;;;;4170488;28;19940;-45
2023/07/17 07:18:14;;;;;;;;;;;23.40;61.30;;;;;;4157224;28;19964;-44
2023/07/17 07:20:56;;;;;;;;;;;23.40;61.50;;;;;;4169134;28;19979;-45
2023/07/17 07:23:37;;;;;;;;;;;23.40;61.50;;;;;;4170656;28;19990;-44
2023/07/17 07:26:18;;;;;;;;;;;23.40;61.50;;;;;;4169896;28;20267;-47
2023/07/17 07:28:59;;;;;;;;;;;23.30;61.60;;;;;;4170554;28;19935;-45
2023/07/17 07:31:40;;;;;;;;;;;23.30;61.70;;;;;;4169621;28;19936;-43
2023/07/17 07:34:21;;;;;;;;;;;23.30;61.90;;;;;;4168130;28;19940;-56
2023/07/17 07:37:04;;;;;;;;;;;23.30;62.00;;;;;;4169314;28;19939;-49
2023/07/17 07:39:45;;;;;;;;;;;23.20;62.10;;;;;;4168133;28;19935;-47
2023/07/17 07:42:25;;;;;;;;;;;23.10;62.20;;;;;;4168135;28;20009;-45
2023/07/17 07:45:07;;;;;;;;;;;23.10;62.70;;;;;;4166492;28;19931;-43
2023/07/17 07:47:48;;;;;;;;;;;23.00;63.10;;;;;;4169607;28;20054;-43
2023/07/17 07:50:29;;;;;;;;;;;23.00;63.30;;;;;;4168644;28;19932;-43
2023/07/17 07:53:16;;;;;;;;;;;22.90;63.40;;;;;;4168170;28;20406;-43
2023/07/17 07:55:56;;;;;;;;;;;22.90;63.70;;;;;;4169915;28;19940;-43
2023/07/17 07:58:37;;;;;;;;;;;22.80;63.70;;;;;;4169138;28;20871;-43
2023/07/17 08:01:18;;;;;;;;;;;22.80;63.90;;;;;;4167896;28;20029;-45
2023/07/17 08:03:59;;;;;;;;;;;22.70;64.00;;;;;;4169590;28;20119;-46
2023/07/17 08:06:40;;;;;;;;;;;22.70;64.10;;;;;;4169695;28;20591;-46
2023/07/17 08:09:23;;;;;;;;;;;22.60;64.20;;;;;;4169360;28;19959;-48
2023/07/17 08:12:04;;;;;;;;;;;22.60;64.30;;;;;;4154033;28;19936;-46
2023/07/17 08:14:44;;;;;;;;;;;22.60;64.50;;;;;;4153346;28;19936;-45
2023/07/17 08:17:25;;;;;;;;;;;22.50;64.60;;;;;;4151294;28;20043;-44
2023/07/17 08:20:07;;;;;;;;;;;22.50;64.80;;;;;;4153015;28;19932;-44
2023/07/17 08:22:48;;;;;;;;;;;22.50;65.10;;;;;;4169487;28;19932;-45
2023/07/17 08:25:30;;;;;;;;;;;22.40;65.10;;;;;;4165358;28;19935;-43
2023/07/17 08:28:11;;;;;;;;;;;22.40;65.30;;;;;;4168919;28;19932;-44
2023/07/17 08:30:53;;;;;;;;;;;22.40;65.40;;;;;;4169202;28;19974;-42
2023/07/17 08:33:34;;;;;;;;;;;22.40;65.70;;;;;;4168237;28;19931;-42
2023/07/17 08:36:15;;;;;;;;;;;22.40;66.00;;;;;;4168763;28;19971;-42
2023/07/17 08:38:56;;;;;;;;;;;22.40;66.30;;;;;;4167058;28;19932;-44
2023/07/17 08:41:41;;;;;;;;;;;22.40;66.50;;;;;;4168120;28;19977;-48
2023/07/17 08:44:22;;;;;;;;;;;22.50;67.00;;;;;;4166943;28;19935;-43
2023/07/17 08:47:05;;;;;;;;;;;22.50;67.40;;;;;;4168628;28;19955;-45
2023/07/17 08:49:46;;;;;;;;;;;22.60;67.40;;;;;;4168763;28;19936;-46
2023/07/17 08:52:28;;;;;;;;;;;22.60;67.50;;;;;;4166365;28;19936;-47
2023/07/17 08:55:09;;;;;;;;;;;22.60;67.40;;;;;;4167520;28;20090;-43
2023/07/17 08:57:53;;;;;;;;;;;22.70;67.50;;;;;;4167674;28;20330;-43
2023/07/17 09:00:34;;;;;;;;;;;22.70;67.10;;;;;;4167820;28;19935;-44
2023/07/17 09:03:14;;;;;;;;;;;22.70;66.70;;;;;;4168992;28;19935;-43
2023/07/17 09:05:56;;;;;;;;;;;22.80;66.50;;;;;;4163261;28;19936;-43
2023/07/17 09:08:37;;;;;;;;;;;22.80;66.40;;;;;;4166435;28;19936;-54
2023/07/17 09:11:17;;;;;;;;;;;22.90;66.20;;;;;;4167397;28;20014;-47
2023/07/17 09:14:00;;;;;;;;;;;22.90;65.90;;;;;;4167384;28;19946;-43
2023/07/17 09:16:41;;;;;;;;;;;23.00;65.70;;;;;;4168377;28;19936;-43
2023/07/17 09:19:23;;;;;;;;;;;23.00;65.40;;;;;;4167730;28;20030;-44
2023/07/17 09:22:05;;;;;;;;;;;23.00;65.00;;;;;;4168112;28;19936;-43
2023/07/17 09:24:49;;;;;;;;;;;23.10;64.70;;;;;;4166166;28;19936;-43
2023/07/17 09:27:30;;;;;;;;;;;23.10;64.50;;;;;;4167989;28;20591;-43
2023/07/17 09:30:13;;;;;;;;;;;23.10;64.20;;;;;;4173542;28;19936;-48
2023/07/17 09:33:04;;;;;;;;;;;23.20;63.70;;;;;;4172800;28;19932;-43
2023/07/17 09:35:54;;;;;;;;;;;23.20;63.90;;;;;;4173749;28;19940;-43
2023/07/17 09:38:35;;;;;;;;;;;23.20;62.70;;;;;;4173813;28;20013;-43
2023/07/17 09:41:21;;;;;;;;;;;23.30;62.60;;;;;;4173260;28;19939;-43
2023/07/17 09:44:03;;;;;;;;;;;23.30;62.10;;;;;;4173651;28;19936;-42
2023/07/17 09:46:45;;;;;;;;;;;23.40;61.70;;;;;;4173476;28;20757;-44
2023/07/17 09:49:27;;;;;;;;;;;23.40;61.30;;;;;;4173444;28;20299;-44
2023/07/17 09:52:07;;;;;;;;;;;23.40;60.90;;;;;;4173957;28;20737;-43
2023/07/17 09:54:50;;;;;;;;;;;23.40;60.80;;;;;;4172982;28;19954;-47
2023/07/17 09:57:35;;;;;;;;;;;23.50;60.70;;;;;;4173989;28;19935;-47
2023/07/17 10:00:18;;;;;;;;;;;23.50;60.40;;;;;;4173596;28;19982;-43
2023/07/17 10:03:03;;;;;;;;;;;23.50;60.00;;;;;;4173376;28;20406;-46
2023/07/17 10:05:45;;;;;;;;;;;23.60;59.90;;;;;;4173498;28;20322;-45
2023/07/17 10:08:28;;;;;;;;;;;23.60;59.70;;;;;;4171319;28;19936;-44
2023/07/17 10:11:09;;;;;;;;;;;23.60;59.50;;;;;;4164811;28;20010;-43
2023/07/17 10:13:50;;;;;;;;;;;23.60;59.20;;;;;;4165307;28;19936;-49
2023/07/17 10:16:31;;;;;;;;;;;23.60;59.20;;;;;;4170746;28;19960;-45
2023/07/17 10:19:14;;;;;;;;;;;23.60;59.10;;;;;;4171563;28;20237;-43
2023/07/17 10:21:56;;;;;;;;;;;23.70;59.20;;;;;;4173043;28;20017;-46
2023/07/17 10:24:37;;;;;;;;;;;23.70;58.80;;;;;;4173575;28;19935;-44
2023/07/17 10:27:17;;;;;;;;;;;23.60;58.60;;;;;;4171792;28;19930;-48
2023/07/17 10:29:59;;;;;;;;;;;23.70;58.30;;;;;;4173464;28;19931;-48
2023/07/17 10:32:40;;;;;;;;;;;23.70;58.10;;;;;;4160292;28;20086;-44
2023/07/17 10:35:22;;;;;;;;;;;23.70;58.00;;;;;;4170844;28;19936;-44
2023/07/17 10:38:08;;;;;;;;;;;23.70;57.90;;;;;;4173386;28;20526;-44
2023/07/17 10:40:51;;;;;;;;;;;23.70;57.90;;;;;;4177259;28;19931;-43
2023/07/17 10:43:33;;;;;;;;;;;23.80;57.80;;;;;;4149255;28;19948;-43
2023/07/17 10:46:14;;;;;;;;;;;23.80;57.70;;;;;;4167643;28;19932;-44
2023/07/17 10:48:55;;;;;;;;;;;23.80;57.70;;;;;;4159089;28;20280;-43
2023/07/17 10:51:41;;;;;;;;;;;23.80;58.60;;;;;;4156122;28;20442;-42
2023/07/17 10:54:24;;;;;;;;;;;23.80;57.70;;;;;;4154560;28;19932;-43
2023/07/17 10:57:05;;;;;;;;;;;23.80;58.00;;;;;;4155979;28;19948;-44
2023/07/17 10:59:48;;;;;;;;;;;23.80;57.70;;;;;;4141226;28;20454;-44
2023/07/17 11:02:29;;;;;;;;;;;23.80;58.20;;;;;;4157320;28;19936;-43
2023/07/17 11:05:10;;;;;;;;;;;23.80;58.90;;;;;;4163226;28;19932;-43
2023/07/17 11:07:55;;;;;;;;;;;23.80;58.90;;;;;;4159244;28;19931;-43
2023/07/17 11:10:37;;;;;;;;;;;23.80;58.50;;;;;;4155801;28;20044;-43
2023/07/17 11:13:17;;;;;;;;;;;23.80;58.20;;;;;;4150512;28;19940;-43
2023/07/17 11:16:05;;;;;;;;;;;23.80;57.90;;;;;;4138042;28;19936;-43
2023/07/17 11:18:47;;;;;;;;;;;23.80;57.50;;;;;;4138608;28;20400;-44
2023/07/17 11:21:28;;;;;;;;;;;23.80;57.30;;;;;;4153355;28;19935;-43
2023/07/17 11:24:10;;;;;;;;;;;23.80;57.70;;;;;;4155611;28;19979;-44
2023/07/17 11:26:51;;;;;;;;;;;23.80;56.70;;;;;;4161109;28;19936;-43
2023/07/17 11:29:36;;;;;;;;;;;23.80;56.50;;;;;;4153623;28;20609;-44
2023/07/17 11:32:19;;;;;;;;;;;23.80;56.30;;;;;;4146981;28;19932;-45
2023/07/17 11:35:00;;;;;;;;;;;23.80;56.10;;;;;;4140869;28;19949;-47
2023/07/17 11:37:41;;;;;;;;;;;23.80;55.90;;;;;;4155104;28;20375;-44
2023/07/17 11:40:24;;;;;;;;;;;23.80;55.90;;;;;;4154114;28;20023;-43
2023/07/17 11:43:05;;;;;;;;;;;23.80;56.00;;;;;;4155050;28;19932;-43
2023/07/17 11:45:46;;;;;;;;;;;23.80;56.70;;;;;;4135355;28;19985;-42
2023/07/17 11:48:27;;;;;;;;;;;23.80;55.90;;;;;;4184617;28;20020;-43
2023/07/17 11:51:08;;;;;;;;;;;23.80;55.80;;;;;;4157943;28;19936;-43
2023/07/17 11:53:52;;;;;;;;;;;23.80;55.70;;;;;;4147820;28;20441;-42
2023/07/17 11:56:38;;;;;;;;;;;23.90;55.70;;;;;;4179845;28;20063;-42
2023/07/17 11:59:19;;;;;;;;;;;23.80;55.70;;;;;;4167979;28;19948;-50
2023/07/17 12:02:00;;;;;;;;;;;23.80;55.70;;;;;;4164587;28;19944;-44
2023/07/17 12:04:41;;;;;;;;;;;23.80;55.60;;;;;;4187582;28;19936;-43
2023/07/17 12:07:22;;;;;;;;;;;23.80;56.10;;;;;;4162905;28;19940;-43
2023/07/17 12:10:03;;;;;;;;;;;23.80;55.20;;;;;;4175400;28;19931;-44
2023/07/17 12:12:46;;;;;;;;;;;23.80;55.10;;;;;;4171113;28;20288;-43
2023/07/17 12:15:28;;;;;;;;;;;23.80;55.10;;;;;;4162580;28;19973;-43
2023/07/17 12:18:09;;;;;;;;;;;23.80;55.30;;;;;;4170151;28;19931;-44
2023/07/17 12:20:50;;;;;;;;;;;23.80;55.50;;;;;;4163809;28;19936;-44
2023/07/17 12:23:30;;;;;;;;;;;23.80;56.60;;;;;;4153367;28;19952;-44
2023/07/17 12:26:11;;;;;;;;;;;23.80;56.50;;;;;;4158381;28;20395;-47
2023/07/17 12:28:54;;;;;;;;;;;23.80;57.10;;;;;;4171426;28;19936;-46
2023/07/17 12:31:35;;;;;;;;;;;23.80;57.40;;;;;;4140178;28;20076;-48
2023/07/17 12:34:16;;;;;;;;;;;23.80;57.40;;;;;;4153021;28;19932;-48
2023/07/17 12:36:57;;;;;;;;;;;23.80;57.50;;;;;;4146839;28;20067;-43
2023/07/17 12:39:38;;;;;;;;;;;23.80;57.50;;;;;;4160233;28;20304;-45
2023/07/17 12:42:19;;;;;;;;;;;23.80;57.40;;;;;;4159161;28;19936;-44
2023/07/17 12:45:01;;;;;;;;;;;23.80;57.30;;;;;;4152421;28;19932;-49
2023/07/17 12:47:42;;;;;;;;;;;23.80;57.30;;;;;;4158084;28;20300;-46
2023/07/17 12:50:25;;;;;;;;;;;23.80;57.90;;;;;;4158721;28;20573;-46
2023/07/17 12:53:06;;;;;;;;;;;23.80;57.10;;;;;;4163000;28;19935;-46
2023/07/17 12:55:47;;;;;;;;;;;23.80;57.10;;;;;;4166224;28;20075;-44
2023/07/17 12:58:35;;;;;;;;;;;23.80;56.90;;;;;;4171603;28;20588;-42
2023/07/17 13:01:18;;;;;;;;;;;23.80;57.90;;;;;;4169678;28;19931;-43
2023/07/17 13:03:59;;;;;;;;;;;23.80;57.30;;;;;;4170233;28;20288;-43
2023/07/17 13:06:40;;;;;;;;;;;23.80;57.60;;;;;;4170704;28;19936;-46
2023/07/17 13:09:21;;;;;;;;;;;23.80;57.60;;;;;;4170201;28;20299;-45
2023/07/17 13:12:05;;;;;;;;;;;23.80;57.70;;;;;;4169207;28;20058;-46
2023/07/17 13:14:47;;;;;;;;;;;23.90;57.60;;;;;;4166017;28;19931;-45
2023/07/17 13:17:30;;;;;;;;;;;23.90;57.50;;;;;;4154963;28;19936;-43
2023/07/17 13:20:23;;;;;;;;;;;23.90;57.30;;;;;;4138678;28;19966;-43
2023/07/17 13:23:04;;;;;;;;;;;23.90;57.10;;;;;;4143926;28;19979;-43
2023/07/17 13:25:46;;;;;;;;;;;23.90;57.70;;;;;;4136731;28;19937;-43
2023/07/17 13:28:27;;;;;;;;;;;23.90;56.70;;;;;;4152551;28;19936;-43
2023/07/17 13:31:08;;;;;;;;;;;23.90;56.70;;;;;;4153800;28;19936;-43
2023/07/17 13:33:52;;;;;;;;;;;23.90;57.50;;;;;;4151613;28;19987;-44
2023/07/17 13:36:32;;;;;;;;;;;23.90;56.60;;;;;;4154033;28;19986;-49
2023/07/17 13:39:13;;;;;;;;;;;23.90;56.50;;;;;;4153198;28;20063;-43
2023/07/17 13:41:54;;;;;;;;;;;23.90;56.60;;;;;;4147888;28;20055;-42
2023/07/17 13:44:35;;;;;;;;;;;23.90;56.40;;;;;;4171752;28;20010;-44
2023/07/17 13:47:16;;;;;;;;;;;23.80;56.40;;;;;;4142752;28;19936;-45
2023/07/17 13:49:59;;;;;;;;;;;23.90;56.50;;;;;;4145589;28;19983;-42
2023/07/17 13:52:41;;;;;;;;;;;23.80;56.50;;;;;;4154369;28;20087;-41
2023/07/17 13:55:21;;;;;;;;;;;23.80;56.10;;;;;;4164769;28;19948;-43
2023/07/17 13:58:02;;;;;;;;;;;23.80;56.20;;;;;;4157296;28;19978;-44
2023/07/17 14:00:43;;;;;;;;;;;23.80;56.00;;;;;;4169912;28;19936;-43
2023/07/17 14:03:26;;;;;;;;;;;23.80;56.00;;;;;;4169324;28;20072;-42
2023/07/17 14:06:09;;;;;;;;;;;23.80;56.00;;;;;;4169476;28;20067;-42
2023/07/17 14:08:49;;;;;;;;;;;23.80;56.10;;;;;;4168450;28;19936;-42
2023/07/17 14:11:31;;;;;;;;;;;23.80;56.10;;;;;;4170428;28;19936;-44
2023/07/17 14:14:12;;;;;;;;;;;23.80;56.90;;;;;;4169972;28;19935;-44
2023/07/17 14:16:53;;;;;;;;;;;23.80;56.20;;;;;;4170998;28;19974;-44
2023/07/17 14:19:34;;;;;;;;;;;23.80;55.90;;;;;;4154307;28;19936;-43
2023/07/17 14:22:16;;;;;;;;;;;23.80;55.80;;;;;;4148498;28;19931;-48
2023/07/17 14:24:56;;;;;;;;;;;23.80;55.80;;;;;;4156282;28;19937;-48
2023/07/17 14:27:37;;;;;;;;;;;23.90;55.80;;;;;;4150942;28;19951;-43
2023/07/17 14:30:18;;;;;;;;;;;23.90;55.80;;;;;;4170046;28;19934;-43
2023/07/17 14:32:59;;;;;;;;;;;23.90;55.60;;;;;;4171245;28;19931;-43
2023/07/17 14:35:41;;;;;;;;;;;23.90;55.60;;;;;;4168623;28;19931;-43
2023/07/17 14:38:23;;;;;;;;;;;23.90;55.60;;;;;;4186704;28;20279;-42
2023/07/17 14:41:04;;;;;;;;;;;23.90;56.70;;;;;;4170291;28;20101;-42
2023/07/17 14:43:46;;;;;;;;;;;23.90;56.20;;;;;;4171064;28;20106;-42
2023/07/17 14:46:28;;;;;;;;;;;23.90;56.40;;;;;;4172520;28;19932;-42
2023/07/17 14:49:09;;;;;;;;;;;23.80;56.50;;;;;;4173241;28;20379;-42
2023/07/17 14:51:50;;;;;;;;;;;23.80;56.70;;;;;;4172220;28;19940;-44
2023/07/17 14:54:33;;;;;;;;;;;23.80;56.90;;;;;;4168515;28;19932;-43
2023/07/17 14:57:13;;;;;;;;;;;23.80;57.00;;;;;;4172174;28;20280;-44
2023/07/17 14:59:54;;;;;;;;;;;23.80;57.30;;;;;;4172066;28;20035;-44
2023/07/17 15:02:35;;;;;;;;;;;23.80;57.40;;;;;;4171082;28;20395;-47
2023/07/17 15:05:16;;;;;;;;;;;23.80;58.40;;;;;;4169712;28;20075;-43
2023/07/17 15:08:00;;;;;;;;;;;23.80;57.90;;;;;;4169785;28;19932;-43
2023/07/17 15:10:42;;;;;;;;;;;23.70;58.10;;;;;;4170251;28;19935;-43
2023/07/17 15:13:23;;;;;;;;;;;23.70;58.30;;;;;;4158538;28;20423;-44
2023/07/17 15:16:07;;;;;;;;;;;23.70;58.40;;;;;;4161941;28;19982;-43
2023/07/17 15:18:48;;;;;;;;;;;23.70;58.50;;;;;;4169489;28;20046;-43
2023/07/17 15:21:29;;;;;;;;;;;23.70;58.70;;;;;;4174949;28;20268;-43
2023/07/17 15:24:09;;;;;;;;;;;23.70;58.80;;;;;;4171902;28;19935;-43
2023/07/17 15:26:52;;;;;;;;;;;23.70;59.60;;;;;;4174373;28;20018;-46
2023/07/17 15:29:33;;;;;;;;;;;23.70;58.80;;;;;;4146323;28;20010;-44
2023/07/17 15:32:14;;;;;;;;;;;23.70;58.70;;;;;;4136865;28;20281;-44
2023/07/17 15:34:56;;;;;;;;;;;23.70;58.90;;;;;;4137756;28;19936;-45
2023/07/17 15:37:37;;;;;;;;;;;23.70;58.70;;;;;;4138605;28;20059;-47
2023/07/17 15:40:17;;;;;;;;;;;23.70;58.70;;;;;;4150180;28;19948;-44